Ankara, Turkey

12:34 AM EEST on July 23, 2014 (GMT +0300)
Esenboga (LTAC) Elev 3114 ft | 40.13 °N, 33.00 °E | Change Station

Current weather conditions updated 14 minutes ago

Clear
Clear
68 °F
Feels Like 68 °F
N
1
Wind Variable Wind from Variable

Today is forecast to be Much Warmer than yesterday.

Today
High -- | Low -- °F
--% Chance of Precip.
Yesterday
High -- | Low -- °F
Precip. -- in
5:37 AM 8:10 PM
Waning Crescent, 15% visible
Pressure 29.92 in
Visibility -9999.0 miles
Clouds
Dew Point 46 °F
Humidity 46%
Rainfall 0.00 in
Snow Depth Not available.
UV Not available.
Pollen Not available.
Air Quality Not available.
Flu Activity Not available.
METAR LTAC 222120Z VRB01KT CAVOK 20/08 Q1013 NOSIG RMK RWY21L VRB02KT RWY03L 00000KT RWY21R VRB01KT

More Conditions Fewer Conditions

Pressure 29.92 in
Visibility -9999.0 miles
Clouds
Dew Point 46 °F
Humidity 46%
Rainfall 0.00 in
Snow Depth Not available.
UV Not available.
Pollen Not available.
Air Quality Not available.
Flu Activity Not available.
METAR LTAC 222120Z VRB01KT CAVOK 20/08 Q1013 NOSIG RMK RWY21L VRB02KT RWY03L 00000KT RWY21R VRB01KT

More Conditions Fewer Conditions

10-Day Weather Forecast

Almanac

Astronomy

Jul. 23, 2014 Rise Set
Actual Time 5:37 AM EEST 8:10 PM EEST
Civil Twilight 5:06 AM EEST 8:41 PM EEST
Nautical Twilight 4:27 AM EEST 9:20 PM EEST
Astronomical Twilight 3:43 AM EEST 10:04 PM EEST
Moon 2:40 AM EEST (7/23) 5:22 PM EEST (7/23)
Length of Visible Light 15h 35m
Length of Day
14h 33m
Tomorrow will be 1m 42s shorter.
Waning Crescent, 15% of the Moon is Illuminated
Jul 22
Waning Crescent
Jul 26
New
Aug 3
First Quarter
Aug 10
Full
Aug 17
Last Quarter

Yesterday's Extremes

Country Highs Country Lows

Community

WunderPhotos

Upload Photos

1,736,360 photos uploaded!

Nearby

Snow Depth

Not available.

Earthquake Activity

City Distance Mag. Time & Date
No recent earthquake activity has been reported nearby.
Minimum magnitude displayed is 2.5.

Coastal Water Temperatures

Place Temperature
No Stations Reporting

Nearby Weather Stations

Station Location Temp. Heat Index Dew Point Humidity Wind Precip. Elev Updated Type
Cayyolu, Ankara 78.6 °F 79 °F 50 °F 37% NNW  at  0.0 mph 0.00 in / hr 3114 ft 12:30 AM EEST Normal

Show More Stations Show Fewer Stations